Time;durP1;ratioP1;P1;durP2;ratioP2;P2;SDS_P1;SDS_P2;PMS_P1;PMS_P2;Temp;Humidity;BMP_temperature;BMP_pressure;BME280_temperature;BME280_humidity;BME280_pressure;Samples;Min_cycle;Max_cycle;Signal;HPM_P1;HPM_P2
2020/12/15 00:01:45;;;;;;;16.63;8.95;;;7.90;99.90;;;;;;5006468;28;20029;-76
2020/12/15 00:04:10;;;;;;;13.10;8.52;;;7.90;99.90;;;;;;5008055;28;20034;-76
2020/12/15 00:06:36;;;;;;;14.77;8.95;;;7.90;99.90;;;;;;5003754;28;20053;-76
2020/12/15 00:09:02;;;;;;;14.63;9.30;;;7.80;99.90;;;;;;5007343;28;20113;-76
2020/12/15 00:11:27;;;;;;;15.63;8.77;;;7.80;99.90;;;;;;5004281;28;20111;-76
2020/12/15 00:13:53;;;;;;;15.93;9.63;;;7.90;99.90;;;;;;5006468;28;20021;-76
2020/12/15 00:16:19;;;;;;;15.52;8.88;;;7.80;99.90;;;;;;5001912;28;20153;-76
2020/12/15 00:18:44;;;;;;;16.98;9.45;;;7.80;99.90;;;;;;5006179;28;20026;-76
2020/12/15 00:21:10;;;;;;;16.27;9.18;;;7.80;99.90;;;;;;5008107;28;20019;-76
2020/12/15 00:23:35;;;;;;;18.98;10.50;;;7.70;99.90;;;;;;5006312;28;20388;-76
2020/12/15 00:26:01;;;;;;;18.17;10.00;;;7.80;99.90;;;;;;5004652;28;20032;-76
2020/12/15 00:28:27;;;;;;;16.85;9.55;;;7.70;99.90;;;;;;4996409;28;20493;-76
2020/12/15 00:30:52;;;;;;;16.17;9.50;;;7.70;99.90;;;;;;5002571;28;20080;-76
2020/12/15 00:33:18;;;;;;;17.70;10.00;;;7.70;99.90;;;;;;5006422;28;20473;-75
2020/12/15 00:35:43;;;;;;;13.82;9.18;;;7.60;99.90;;;;;;5006273;28;20045;-75
2020/12/15 00:38:09;;;;;;;15.40;9.73;;;7.60;99.90;;;;;;5006221;28;20033;-76
2020/12/15 00:40:34;;;;;;;16.10;9.43;;;7.60;99.90;;;;;;5006362;28;20205;-76
2020/12/15 00:43:00;;;;;;;15.73;9.63;;;7.50;99.90;;;;;;5007182;28;20560;-76
2020/12/15 00:45:25;;;;;;;15.80;9.20;;;7.50;99.90;;;;;;5008931;28;20072;-76
2020/12/15 00:47:51;;;;;;;15.68;8.73;;;7.50;99.90;;;;;;5010460;28;20029;-76
2020/12/15 00:50:17;;;;;;;18.27;9.93;;;7.60;99.90;;;;;;5010828;28;20033;-76
2020/12/15 00:52:42;;;;;;;17.70;10.15;;;7.60;99.90;;;;;;5011231;28;20026;-76
2020/12/15 00:55:08;;;;;;;14.30;8.85;;;7.60;99.90;;;;;;5009938;28;20079;-76
2020/12/15 00:57:33;;;;;;;14.40;9.32;;;7.60;99.90;;;;;;5010230;28;20293;-76
2020/12/15 00:59:59;;;;;;;14.65;8.82;;;7.60;99.90;;;;;;5010318;28;20021;-76
2020/12/15 01:02:24;;;;;;;14.00;8.77;;;7.50;99.90;;;;;;5008083;28;20460;-76
2020/12/15 01:04:50;;;;;;;19.83;9.40;;;7.50;99.90;;;;;;5008586;28;20491;-76
2020/12/15 01:07:15;;;;;;;17.55;9.10;;;7.50;99.90;;;;;;5010063;28;20100;-76
2020/12/15 01:09:41;;;;;;;15.38;9.63;;;7.50;99.90;;;;;;5010945;28;20135;-76
2020/12/15 01:12:11;;;;;;;19.17;9.68;;;7.40;99.90;;;;;;5008773;28;20425;-76
2020/12/15 01:14:36;;;;;;;18.25;9.80;;;7.40;99.90;;;;;;5009900;28;20057;-76
2020/12/15 01:17:02;;;;;;;16.08;9.77;;;7.40;99.90;;;;;;5009932;28;20666;-76
2020/12/15 01:19:27;;;;;;;16.45;9.45;;;7.40;99.90;;;;;;5009993;28;20030;-76
2020/12/15 01:21:53;;;;;;;15.32;8.82;;;7.40;99.90;;;;;;5009831;28;20121;-76
2020/12/15 01:24:21;;;;;;;19.08;9.55;;;7.40;99.90;;;;;;5010255;28;20026;-76
2020/12/15 01:26:46;;;;;;;14.27;8.65;;;7.40;99.90;;;;;;5009935;28;20045;-76
2020/12/15 01:29:12;;;;;;;14.15;9.15;;;7.30;99.90;;;;;;5010218;28;20046;-76
2020/12/15 01:31:37;;;;;;;15.95;9.23;;;7.30;99.90;;;;;;5009375;28;20481;-76
2020/12/15 01:34:03;;;;;;;15.85;9.68;;;7.30;99.90;;;;;;5010219;28;20022;-76
2020/12/15 01:36:30;;;;;;;18.30;10.05;;;7.30;99.90;;;;;;5004936;28;20034;-76
2020/12/15 01:38:56;;;;;;;16.77;9.50;;;7.20;99.90;;;;;;5010442;28;20037;-76
2020/12/15 01:41:22;;;;;;;15.63;9.45;;;7.20;99.90;;;;;;5010358;28;20033;-76
2020/12/15 01:44:02;;;;;;;17.05;9.65;;;7.20;99.90;;;;;;5009419;28;20033;-76
2020/12/15 01:46:29;;;;;;;16.08;9.70;;;7.20;99.90;;;;;;5007052;28;20026;-76
2020/12/15 01:48:56;;;;;;;17.85;9.90;;;7.20;99.90;;;;;;5009434;28;20029;-76
2020/12/15 01:51:22;;;;;;;15.88;9.35;;;7.20;99.90;;;;;;5008782;28;20473;-76
2020/12/15 01:53:48;;;;;;;17.38;9.50;;;7.20;99.90;;;;;;5009388;28;20038;-76
2020/12/15 01:56:14;;;;;;;16.48;9.50;;;7.20;99.90;;;;;;5009984;28;20527;-76
2020/12/15 01:58:40;;;;;;;17.15;9.73;;;7.20;99.90;;;;;;5008699;28;20048;-76
2020/12/15 02:01:07;;;;;;;14.35;8.95;;;7.20;99.90;;;;;;5004020;28;20026;-76
2020/12/15 02:03:32;;;;;;;15.38;9.70;;;7.20;99.90;;;;;;5008013;28;20812;-76
2020/12/15 02:05:58;;;;;;;15.25;9.05;;;7.20;99.90;;;;;;5008602;28;20038;-76
2020/12/15 02:08:24;;;;;;;15.05;9.60;;;7.20;99.90;;;;;;5008045;28;20096;-76
2020/12/15 02:10:49;;;;;;;15.48;9.27;;;7.30;99.90;;;;;;5007580;28;20037;-76
2020/12/15 02:13:15;;;;;;;14.98;8.95;;;7.20;99.90;;;;;;5007243;28;20026;-76
2020/12/15 02:15:40;;;;;;;14.95;8.93;;;7.20;99.90;;;;;;5009676;28;20042;-75
2020/12/15 02:18:06;;;;;;;17.52;8.93;;;7.20;99.90;;;;;;5006281;28;20053;-76
2020/12/15 02:20:32;;;;;;;14.32;9.30;;;7.30;99.90;;;;;;5007758;28;20117;-76
2020/12/15 02:22:58;;;;;;;14.13;8.77;;;7.20;99.90;;;;;;5008587;28;20172;-76
2020/12/15 02:25:24;;;;;;;15.13;9.38;;;7.20;99.90;;;;;;5008789;28;20053;-76
2020/12/15 02:27:49;;;;;;;15.40;9.27;;;7.20;99.90;;;;;;5009649;28;20029;-75
2020/12/15 02:30:15;;;;;;;14.93;8.82;;;7.20;99.90;;;;;;5007669;28;20117;-76
2020/12/15 02:32:41;;;;;;;14.82;9.27;;;7.20;99.90;;;;;;5007561;28;20188;-77
2020/12/15 02:35:06;;;;;;;14.48;9.38;;;7.10;99.90;;;;;;5007864;28;20034;-76
2020/12/15 02:37:32;;;;;;;16.50;8.95;;;7.10;99.90;;;;;;5007309;28;20030;-76
2020/12/15 02:40:04;;;;;;;13.88;8.38;;;7.10;99.90;;;;;;5009213;28;20069;-76
2020/12/15 02:42:31;;;;;;;16.00;9.40;;;7.10;99.90;;;;;;5007945;28;20165;-76
2020/12/15 02:44:57;;;;;;;15.05;9.43;;;7.10;99.90;;;;;;5008663;28;20026;-75
2020/12/15 02:47:23;;;;;;;13.65;9.20;;;7.10;99.90;;;;;;5000858;28;20492;-76
2020/12/15 02:49:49;;;;;;;14.73;8.90;;;7.10;99.90;;;;;;5008017;28;20124;-76
2020/12/15 02:52:15;;;;;;;15.45;8.73;;;7.10;99.90;;;;;;5008286;28;20081;-76
2020/12/15 02:54:41;;;;;;;12.75;8.48;;;7.10;99.90;;;;;;5008338;28;20152;-76
2020/12/15 02:57:07;;;;;;;16.15;9.20;;;7.10;99.90;;;;;;5007239;28;20208;-76
2020/12/15 02:59:32;;;;;;;14.45;8.77;;;7.00;99.90;;;;;;5007976;28;20171;-76
2020/12/15 03:01:57;;;;;;;15.98;8.88;;;7.00;99.90;;;;;;5007209;28;20022;-76
2020/12/15 03:04:23;;;;;;;15.52;9.15;;;7.00;99.90;;;;;;5007758;28;20046;-76
2020/12/15 03:06:49;;;;;;;16.23;9.43;;;7.00;99.90;;;;;;5006752;28;20022;-76
2020/12/15 03:09:14;;;;;;;13.82;8.45;;;7.00;99.90;;;;;;5008016;28;20556;-75
2020/12/15 03:11:40;;;;;;;15.20;9.52;;;7.00;99.90;;;;;;5006133;28;20451;-76
2020/12/15 03:14:05;;;;;;;15.20;9.55;;;7.00;99.90;;;;;;5006086;28;20431;-76
2020/12/15 03:16:31;;;;;;;17.10;9.63;;;7.00;99.90;;;;;;5007166;28;20167;-76
2020/12/15 03:18:57;;;;;;;15.60;9.82;;;7.00;99.90;;;;;;5008139;28;20164;-76
2020/12/15 03:21:24;;;;;;;14.95;9.45;;;7.10;99.90;;;;;;5007516;28;20049;-76
2020/12/15 03:23:50;;;;;;;13.57;8.82;;;7.00;99.90;;;;;;5006897;28;20026;-77
2020/12/15 03:26:16;;;;;;;16.25;9.13;;;7.10;99.90;;;;;;5009361;28;20025;-77
2020/12/15 03:28:42;;;;;;;15.07;9.50;;;7.00;99.90;;;;;;5007248;28;20036;-76
2020/12/15 03:31:07;;;;;;;19.23;9.90;;;7.00;99.90;;;;;;5008152;28;20412;-76
2020/12/15 03:33:33;;;;;;;15.02;9.35;;;7.00;99.90;;;;;;5006353;28;20026;-76
2020/12/15 03:35:58;;;;;;;16.63;9.18;;;7.00;99.90;;;;;;5007920;28;20096;-76
2020/12/15 03:38:24;;;;;;;16.55;9.32;;;7.00;99.90;;;;;;5006904;28;20139;-76
2020/12/15 03:40:50;;;;;;;15.13;9.45;;;6.90;99.90;;;;;;5008234;28;20045;-76
2020/12/15 03:43:15;;;;;;;17.95;9.65;;;6.90;99.90;;;;;;5007854;28;20425;-77
2020/12/15 03:45:44;;;;;;;15.50;9.75;;;6.80;99.90;;;;;;5007287;28;20017;-77
2020/12/15 03:48:15;;;;;;;18.10;10.20;;;6.90;99.90;;;;;;5003582;28;20104;-76
2020/12/15 03:50:41;;;;;;;16.20;9.30;;;6.90;99.90;;;;;;5004374;28;20037;-76
2020/12/15 03:53:07;;;;;;;17.27;10.02;;;6.90;99.90;;;;;;5007686;28;20049;-77
2020/12/15 03:55:32;;;;;;;16.42;9.80;;;6.90;99.90;;;;;;5006515;28;20092;-76
2020/12/15 03:57:58;;;;;;;15.68;9.32;;;6.90;99.90;;;;;;5007770;28;20033;-76
2020/12/15 04:00:23;;;;;;;15.40;9.68;;;6.90;99.90;;;;;;5007088;28;20020;-76
2020/12/15 04:02:49;;;;;;;16.90;9.80;;;6.90;99.90;;;;;;5007433;28;20321;-77
2020/12/15 04:05:14;;;;;;;19.98;10.23;;;7.00;99.90;;;;;;5006622;28;20073;-76
2020/12/15 04:07:41;;;;;;;15.30;9.55;;;7.00;99.90;;;;;;5007608;28;20022;-76
2020/12/15 04:10:07;;;;;;;18.17;10.38;;;7.00;99.90;;;;;;5006348;28;20037;-76
2020/12/15 04:12:32;;;;;;;17.17;9.52;;;7.00;99.90;;;;;;5006947;28;20030;-76
2020/12/15 04:14:58;;;;;;;16.95;9.73;;;7.00;99.90;;;;;;5007073;28;20108;-76
2020/12/15 04:17:23;;;;;;;17.83;10.35;;;7.00;99.90;;;;;;5007523;28;20480;-83
2020/12/15 04:19:49;;;;;;;18.02;10.70;;;7.00;99.90;;;;;;5006314;28;20030;-74
2020/12/15 04:22:14;;;;;;;16.05;9.80;;;6.90;99.90;;;;;;5010693;28;20022;-75
2020/12/15 04:24:40;;;;;;;18.73;10.63;;;6.90;99.90;;;;;;5012173;28;20103;-75
2020/12/15 04:27:06;;;;;;;17.02;10.00;;;6.90;99.90;;;;;;5011988;28;20029;-75
2020/12/15 04:29:32;;;;;;;15.30;9.77;;;6.80;99.90;;;;;;5008565;28;20026;-78
2020/12/15 04:31:57;;;;;;;16.20;10.13;;;6.80;99.90;;;;;;5010113;28;20087;-77
2020/12/15 04:34:23;;;;;;;18.13;11.10;;;6.70;99.90;;;;;;5011554;28;20021;-77
2020/12/15 04:36:49;;;;;;;18.23;11.15;;;6.60;99.90;;;;;;5009582;28;20087;-78
2020/12/15 04:39:14;;;;;;;17.45;10.50;;;6.70;99.90;;;;;;5011546;28;20037;-77
2020/12/15 04:41:40;;;;;;;17.67;10.93;;;6.70;99.90;;;;;;5011570;28;20029;-78
2020/12/15 04:44:07;;;;;;;16.35;10.40;;;6.50;99.90;;;;;;5010981;28;20431;-77
2020/12/15 04:46:37;;;;;;;20.65;11.27;;;6.50;99.90;;;;;;5005223;28;20140;-79
2020/12/15 04:49:08;;;;;;;20.33;10.80;;;6.60;99.90;;;;;;5008138;28;20041;-76
2020/12/15 04:51:46;;;;;;;18.73;10.95;;;6.60;99.90;;;;;;5010229;28;20045;-75
2020/12/15 04:54:16;;;;;;;20.63;9.88;;;6.50;99.90;;;;;;5011383;28;20120;-76
2020/12/15 04:56:44;;;;;;;19.13;11.45;;;6.50;99.90;;;;;;5010465;28;20049;-76
2020/12/15 04:59:12;;;;;;;20.67;10.98;;;6.50;99.90;;;;;;5007100;28;20117;-77
2020/12/15 05:01:39;;;;;;;19.65;10.75;;;6.40;99.90;;;;;;5009811;28;20072;-77
2020/12/15 05:04:07;;;;;;;20.27;11.70;;;6.40;99.90;;;;;;5009728;28;20421;-77
2020/12/15 05:06:37;;;;;;;26.35;12.23;;;6.40;99.90;;;;;;5008117;28;20029;-76
2020/12/15 05:09:03;;;;;;;20.50;11.00;;;6.30;99.90;;;;;;5008142;28;20064;-76
2020/12/15 05:11:28;;;;;;;23.08;11.18;;;6.30;99.90;;;;;;5011207;28;20114;-77
2020/12/15 05:13:54;;;;;;;19.65;11.27;;;6.40;99.90;;;;;;5010444;28;20463;-76
2020/12/15 05:16:20;;;;;;;19.30;11.95;;;6.40;99.90;;;;;;5011026;28;20034;-77
2020/12/15 05:18:45;;;;;;;19.83;11.68;;;6.30;99.90;;;;;;5008404;28;20392;-77
2020/12/15 05:21:20;;;;;;;21.88;12.15;;;6.30;99.90;;;;;;5010261;28;20049;-77
2020/12/15 05:23:54;;;;;;;19.65;11.65;;;6.40;99.90;;;;;;5009505;28;20112;-77
2020/12/15 05:26:24;;;;;;;19.42;11.05;;;6.40;99.90;;;;;;5010396;28;20025;-77
2020/12/15 05:29:07;;;;;;;21.35;12.02;;;6.40;99.90;;;;;;5009808;28;20054;-77
2020/12/15 05:31:33;;;;;;;21.30;12.25;;;6.40;99.90;;;;;;5008873;28;20388;-77
2020/12/15 05:33:59;;;;;;;23.38;12.07;;;6.30;99.90;;;;;;5007108;28;20044;-78
2020/12/15 05:36:24;;;;;;;23.98;12.40;;;6.30;99.90;;;;;;5009896;28;20057;-78
2020/12/15 05:39:08;;;;;;;20.52;11.77;;;6.40;99.90;;;;;;5009665;28;20026;-78
2020/12/15 05:41:34;;;;;;;23.13;11.95;;;6.40;99.90;;;;;;5013120;28;20050;-78
2020/12/15 05:44:01;;;;;;;23.55;11.82;;;6.30;99.90;;;;;;5007325;28;20141;-78
2020/12/15 05:46:28;;;;;;;19.83;11.27;;;6.40;99.90;;;;;;5008644;28;20030;-77
2020/12/15 05:49:01;;;;;;;21.23;12.02;;;6.40;99.90;;;;;;5010653;28;20080;-77
2020/12/15 05:51:39;;;;;;;20.02;11.32;;;6.40;99.90;;;;;;5001083;28;20027;-76
2020/12/15 05:54:13;;;;;;;21.95;11.77;;;6.30;99.90;;;;;;5007242;28;20026;-78
2020/12/15 05:56:39;;;;;;;21.70;12.60;;;6.40;99.90;;;;;;5009162;28;20057;-80
2020/12/15 05:59:18;;;;;;;21.25;12.10;;;6.40;99.90;;;;;;5007926;28;20042;-78
2020/12/15 06:01:45;;;;;;;20.20;11.52;;;6.50;99.90;;;;;;5009139;28;20117;-81
2020/12/15 06:04:12;;;;;;;21.85;12.75;;;6.60;99.90;;;;;;5008622;28;20067;-75
2020/12/15 06:06:38;;;;;;;21.88;11.57;;;6.60;99.90;;;;;;5000115;28;20072;-74
2020/12/15 06:09:07;;;;;;;25.08;12.68;;;6.50;99.90;;;;;;5005791;28;20064;-76
2020/12/15 06:11:33;;;;;;;23.90;13.13;;;6.40;99.90;;;;;;5006297;28;20125;-78
2020/12/15 06:14:00;;;;;;;20.13;11.68;;;6.50;99.90;;;;;;5005243;28;20681;-77
2020/12/15 06:16:25;;;;;;;25.67;11.68;;;6.50;99.90;;;;;;5006975;28;20025;-76
2020/12/15 06:18:51;;;;;;;20.20;12.15;;;6.50;99.90;;;;;;5008911;28;20040;-76
2020/12/15 06:21:16;;;;;;;25.00;12.23;;;6.50;99.90;;;;;;5009012;28;20026;-77
2020/12/15 06:23:43;;;;;;;19.45;12.02;;;6.50;99.90;;;;;;5008015;28;20448;-78
2020/12/15 06:29:14;;;;;;;24.48;11.27;;;6.60;99.90;;;;;;5006583;28;20056;-77
2020/12/15 06:31:50;;;;;;;24.45;12.60;;;6.60;99.90;;;;;;5007265;28;20033;-76
2020/12/15 06:34:25;;;;;;;21.55;11.93;;;6.50;99.90;;;;;;5008359;28;20038;-76
2020/12/15 06:36:50;;;;;;;24.02;12.75;;;6.60;99.90;;;;;;5007006;28;20049;-75
2020/12/15 06:39:16;;;;;;;22.35;12.55;;;6.60;99.90;;;;;;5005883;28;20041;-76
2020/12/15 06:41:41;;;;;;;23.08;13.27;;;6.60;99.90;;;;;;5006089;28;20033;-76
2020/12/15 06:44:07;;;;;;;22.90;12.85;;;6.60;99.90;;;;;;5007028;28;20537;-75
2020/12/15 06:46:33;;;;;;;20.60;12.57;;;6.60;99.90;;;;;;5007407;28;20128;-76
2020/12/15 06:48:59;;;;;;;21.52;11.85;;;6.70;99.90;;;;;;5007526;28;20440;-76
2020/12/15 06:51:30;;;;;;;21.38;12.45;;;6.60;99.90;;;;;;5006915;28;20034;-76
2020/12/15 06:54:03;;;;;;;21.38;11.98;;;6.70;99.90;;;;;;5008756;28;20133;-76
2020/12/15 06:56:30;;;;;;;23.92;12.45;;;6.70;99.90;;;;;;5003635;28;20510;-76
2020/12/15 06:59:00;;;;;;;21.15;12.02;;;6.70;99.90;;;;;;5008201;28;20636;-77
2020/12/15 07:01:26;;;;;;;20.38;11.85;;;6.70;99.90;;;;;;5008304;28;20030;-76
2020/12/15 07:03:59;;;;;;;20.15;11.75;;;6.70;99.90;;;;;;5007380;28;20038;-76
2020/12/15 07:06:25;;;;;;;22.40;12.23;;;6.70;99.90;;;;;;5004915;28;20032;-76
2020/12/15 07:08:58;;;;;;;23.42;12.70;;;6.70;99.90;;;;;;5006983;28;20038;-77
2020/12/15 07:11:26;;;;;;;23.88;12.45;;;6.60;99.90;;;;;;5008226;28;20026;-78
2020/12/15 07:13:59;;;;;;;23.05;12.55;;;6.70;99.90;;;;;;5001312;28;20033;-78
2020/12/15 07:16:25;;;;;;;26.27;12.68;;;6.70;99.90;;;;;;5005331;28;20449;-78
2020/12/15 07:18:51;;;;;;;23.77;12.70;;;6.60;99.90;;;;;;5002146;28;20468;-78
2020/12/15 07:21:18;;;;;;;20.58;11.88;;;6.70;99.90;;;;;;5003378;28;20273;-78
2020/12/15 07:23:46;;;;;;;22.13;12.63;;;6.60;99.90;;;;;;5004498;28;20037;-75
2020/12/15 07:26:17;;;;;;;31.10;13.35;;;6.60;99.90;;;;;;5004723;28;20043;-78
2020/12/15 07:28:43;;;;;;;28.35;13.13;;;6.60;99.90;;;;;;5004420;28;20037;-78
2020/12/15 07:31:11;;;;;;;24.88;13.43;;;6.60;99.90;;;;;;5003909;28;20073;-79
2020/12/15 07:33:38;;;;;;;21.20;12.35;;;6.60;99.90;;;;;;5003717;28;20107;-76
2020/12/15 07:36:15;;;;;;;24.38;12.80;;;6.50;99.90;;;;;;5001372;28;20026;-79
2020/12/15 07:38:43;;;;;;;26.13;11.98;;;6.60;99.90;;;;;;5003064;28;20032;-79
2020/12/15 07:41:13;;;;;;;25.13;12.70;;;6.60;99.90;;;;;;5003717;28;20035;-78
2020/12/15 07:43:38;;;;;;;35.05;13.93;;;6.60;99.90;;;;;;5001503;28;20026;-77
2020/12/15 07:46:15;;;;;;;24.35;12.45;;;6.60;99.90;;;;;;5002654;28;20026;-78
2020/12/15 07:48:40;;;;;;;24.60;13.48;;;6.60;99.90;;;;;;5005191;28;20041;-79
2020/12/15 07:51:06;;;;;;;24.65;13.35;;;6.70;99.90;;;;;;5001817;28;20030;-78
2020/12/15 07:53:31;;;;;;;22.60;13.05;;;6.70;99.90;;;;;;5001638;28;20050;-77
2020/12/15 07:56:06;;;;;;;27.48;13.85;;;6.70;99.90;;;;;;5003454;28;20022;-77
2020/12/15 07:58:32;;;;;;;23.48;13.45;;;6.80;99.90;;;;;;5002320;28;20121;-78
2020/12/15 08:00:58;;;;;;;28.40;13.55;;;6.80;99.90;;;;;;5002547;28;20097;-79
2020/12/15 08:03:23;;;;;;;28.55;14.30;;;6.80;99.90;;;;;;5004230;28;20407;-77
2020/12/15 08:05:49;;;;;;;22.95;13.07;;;6.80;99.90;;;;;;5004711;28;20022;-77
2020/12/15 08:08:15;;;;;;;26.70;13.07;;;6.80;99.90;;;;;;5003071;28;20034;-77
2020/12/15 08:10:40;;;;;;;23.20;12.55;;;6.90;99.90;;;;;;5005302;28;20026;-77
2020/12/15 08:13:06;;;;;;;22.52;13.30;;;6.90;99.90;;;;;;5001631;28;20039;-77
2020/12/15 08:15:42;;;;;;;25.48;13.25;;;6.90;99.90;;;;;;5004673;28;20487;-77
2020/12/15 08:18:09;;;;;;;23.45;13.07;;;7.00;99.90;;;;;;5003329;28;20113;-90
2020/12/15 08:20:36;;;;;;;27.23;13.27;;;7.00;99.90;;;;;;5001256;28;20029;-79
2020/12/15 08:23:06;;;;;;;29.08;13.13;;;7.00;99.90;;;;;;5001960;28;20029;-78
2020/12/15 08:25:31;;;;;;;30.23;13.50;;;7.00;99.90;;;;;;5002240;28;20026;-78
2020/12/15 08:28:11;;;;;;;25.30;12.52;;;7.00;99.90;;;;;;5004401;28;20037;-78
2020/12/15 08:30:36;;;;;;;25.25;12.93;;;7.10;99.90;;;;;;5004609;28;20508;-78
2020/12/15 08:33:02;;;;;;;23.85;13.52;;;7.10;99.90;;;;;;5004534;28;20248;-78
2020/12/15 08:35:28;;;;;;;22.00;12.70;;;7.20;99.90;;;;;;4997012;28;20030;-77
2020/12/15 08:38:02;;;;;;;22.42;12.27;;;7.10;99.90;;;;;;4999240;28;20480;-77
2020/12/15 08:40:29;;;;;;;24.77;13.05;;;7.20;99.90;;;;;;5004683;28;20026;-77
2020/12/15 08:43:00;;;;;;;23.40;12.07;;;7.20;99.90;;;;;;5003633;28;20354;-77
2020/12/15 08:45:26;;;;;;;;;;;7.20;99.90;;;;;;5005220;28;20024;-77
2020/12/15 08:47:54;;;;;;;20.25;12.00;;;7.20;99.90;;;;;;5003249;28;19991;-77
2020/12/15 08:50:20;;;;;;;27.67;12.40;;;7.20;99.90;;;;;;5003543;28;20520;-77
2020/12/15 08:52:45;;;;;;;20.50;12.50;;;7.20;99.90;;;;;;5002312;28;20057;-77
2020/12/15 08:55:11;;;;;;;26.17;13.25;;;7.20;99.90;;;;;;5002299;28;20038;-77
2020/12/15 08:57:37;;;;;;;24.35;12.57;;;7.20;99.90;;;;;;5002378;28;21155;-77
2020/12/15 09:00:16;;;;;;;23.42;13.38;;;7.20;99.90;;;;;;5003800;28;20906;-77
2020/12/15 09:02:42;;;;;;;23.02;12.60;;;7.30;99.90;;;;;;5004352;28;20030;-78
2020/12/15 09:05:15;;;;;;;24.00;13.32;;;7.30;99.90;;;;;;5002231;28;20048;-77
2020/12/15 09:07:40;;;;;;;22.48;12.50;;;7.50;99.90;;;;;;5006912;28;20026;-77
2020/12/15 09:10:10;;;;;;;21.80;12.30;;;7.40;99.90;;;;;;5007626;28;20112;-76
2020/12/15 09:12:36;;;;;;;22.75;13.18;;;7.50;99.90;;;;;;5007163;28;20135;-77
2020/12/15 09:15:04;;;;;;;22.27;12.70;;;7.60;99.90;;;;;;5006476;28;20138;-77
2020/12/15 09:17:30;;;;;;;22.48;12.55;;;7.60;99.90;;;;;;5006632;28;20210;-76
2020/12/15 09:19:55;;;;;;;21.40;12.68;;;7.60;99.90;;;;;;5007144;28;20033;-76
2020/12/15 09:22:21;;;;;;;23.65;12.60;;;7.60;99.90;;;;;;5008112;28;20018;-76
2020/12/15 09:24:47;;;;;;;22.42;12.18;;;7.60;99.90;;;;;;5006138;28;20109;-77
2020/12/15 09:27:21;;;;;;;24.23;12.60;;;7.60;99.90;;;;;;5008081;28;20178;-76
2020/12/15 09:29:47;;;;;;;22.58;12.70;;;7.80;99.90;;;;;;5004603;28;20527;-77
2020/12/15 09:32:13;;;;;;;21.15;12.05;;;7.80;99.90;;;;;;5006441;28;20110;-76
2020/12/15 09:34:38;;;;;;;25.33;13.60;;;7.80;99.90;;;;;;5005655;28;20152;-75
2020/12/15 09:37:04;;;;;;;19.42;11.75;;;7.90;99.90;;;;;;5005363;28;20034;-75
2020/12/15 09:39:30;;;;;;;21.55;12.50;;;7.70;99.90;;;;;;5007502;28;20544;-76
2020/12/15 09:42:01;;;;;;;18.98;11.35;;;7.80;99.90;;;;;;5006666;28;20033;-75
2020/12/15 09:44:27;;;;;;;19.80;11.90;;;7.80;99.90;;;;;;5006002;28;20113;-76
2020/12/15 09:46:52;;;;;;;21.08;11.82;;;8.10;99.90;;;;;;5006274;28;20046;-76
2020/12/15 09:49:18;;;;;;;20.55;11.57;;;8.10;99.90;;;;;;5007414;28;20119;-76
2020/12/15 09:51:43;;;;;;;21.02;12.30;;;7.90;99.90;;;;;;5004293;28;20042;-76
2020/12/15 09:54:10;;;;;;;18.38;11.30;;;8.10;99.90;;;;;;5002678;28;20026;-76
2020/12/15 09:56:41;;;;;;;20.10;11.32;;;8.20;99.90;;;;;;5005409;28;20025;-76
2020/12/15 09:59:08;;;;;;;21.10;11.85;;;8.20;99.90;;;;;;5007852;28;20484;-76
2020/12/15 10:01:33;;;;;;;21.98;12.20;;;8.10;99.90;;;;;;5005519;28;20061;-76
2020/12/15 10:03:58;;;;;;;22.13;11.52;;;8.20;99.90;;;;;;5006705;28;20082;-76
2020/12/15 10:06:24;;;;;;;20.42;11.82;;;8.10;99.90;;;;;;5007182;28;20022;-75
2020/12/15 10:08:49;;;;;;;21.70;12.45;;;8.00;99.90;;;;;;5006816;28;20084;-76
2020/12/15 10:11:16;;;;;;;23.55;11.70;;;8.10;99.90;;;;;;5006726;28;20084;-75
2020/12/15 10:13:42;;;;;;;21.23;12.45;;;8.00;99.90;;;;;;5006639;28;20042;-75
2020/12/15 10:16:08;;;;;;;20.00;11.90;;;7.90;99.90;;;;;;5005137;28;20233;-76
2020/12/15 10:18:33;;;;;;;20.95;11.75;;;7.90;99.90;;;;;;5003343;28;20034;-76
2020/12/15 10:21:01;;;;;;;18.85;11.45;;;7.90;99.90;;;;;;5006397;28;20030;-75
2020/12/15 10:23:27;;;;;;;22.27;12.40;;;7.80;99.90;;;;;;5006108;28;20073;-76
2020/12/15 10:25:52;;;;;;;19.88;11.73;;;7.90;99.90;;;;;;5006480;28;20373;-75
2020/12/15 10:28:18;;;;;;;19.48;11.68;;;7.80;99.90;;;;;;5005902;28;20021;-76
2020/12/15 10:30:43;;;;;;;19.48;11.68;;;7.70;99.90;;;;;;5005895;28;20029;-76
2020/12/15 10:33:11;;;;;;;22.13;12.45;;;7.80;99.90;;;;;;5006351;28;20061;-75
2020/12/15 10:35:36;;;;;;;20.50;11.40;;;7.70;99.90;;;;;;5006930;28;20432;-76
2020/12/15 10:38:02;;;;;;;21.77;12.07;;;7.80;99.90;;;;;;5005722;28;20201;-76
2020/12/15 10:40:27;;;;;;;22.98;12.38;;;7.90;99.90;;;;;;5004290;28;20472;-76
2020/12/15 10:42:53;;;;;;;21.67;11.60;;;7.90;99.90;;;;;;5000914;28;20109;-76
2020/12/15 10:45:19;;;;;;;20.88;12.65;;;7.90;99.90;;;;;;5005098;28;20018;-76
2020/12/15 10:47:44;;;;;;;20.88;12.35;;;7.80;99.90;;;;;;5000583;28;20029;-86
2020/12/15 10:50:10;;;;;;;24.73;12.60;;;7.80;99.90;;;;;;5001503;28;20073;-72
2020/12/15 10:52:36;;;;;;;19.42;11.82;;;7.90;99.90;;;;;;5003272;28;20017;-78
2020/12/15 10:55:03;;;;;;;22.75;12.95;;;7.90;99.90;;;;;;5005386;28;20062;-76
2020/12/15 10:57:29;;;;;;;19.52;11.90;;;8.00;99.90;;;;;;5005582;28;20026;-77
2020/12/15 10:59:54;;;;;;;21.60;12.55;;;8.00;99.90;;;;;;5005530;28;20041;-77
2020/12/15 11:02:20;;;;;;;25.15;12.82;;;8.00;99.90;;;;;;5004720;28;20025;-76
2020/12/15 11:04:45;;;;;;;23.65;12.48;;;8.10;99.90;;;;;;5005114;28;20056;-85
2020/12/15 11:07:11;;;;;;;20.80;11.68;;;8.20;99.90;;;;;;5000900;28;20061;-81
2020/12/15 11:09:36;;;;;;;22.48;12.45;;;8.20;99.90;;;;;;5000150;28;20481;-78
2020/12/15 11:12:02;;;;;;;18.52;10.98;;;8.20;99.90;;;;;;5004953;28;20195;-77
2020/12/15 11:14:28;;;;;;;19.48;11.95;;;8.10;99.90;;;;;;5005482;28;20038;-79
2020/12/15 11:16:53;;;;;;;22.80;12.98;;;8.20;99.90;;;;;;5004989;28;20492;-83
2020/12/15 11:19:20;;;;;;;20.85;12.18;;;8.30;99.90;;;;;;5000618;28;20041;-79
2020/12/15 11:21:47;;;;;;;21.13;12.15;;;8.30;99.90;;;;;;5006372;28;20147;-79
2020/12/15 11:24:15;;;;;;;22.75;12.43;;;8.30;99.90;;;;;;5001444;28;20026;-79
2020/12/15 11:26:53;;;;;;;22.05;11.75;;;8.40;99.90;;;;;;4996886;28;20115;-80
2020/12/15 11:29:19;;;;;;;20.65;11.98;;;8.30;99.90;;;;;;4998978;28;20038;-77
2020/12/15 11:31:51;;;;;;;19.88;11.00;;;8.30;99.90;;;;;;5002856;28;20034;-77
2020/12/15 11:34:17;;;;;;;22.80;12.75;;;8.30;99.90;;;;;;4999595;28;20080;-77
2020/12/15 11:36:43;;;;;;;24.10;11.85;;;8.40;99.90;;;;;;5004263;28;20049;-77
2020/12/15 11:39:09;;;;;;;21.73;11.60;;;8.40;99.90;;;;;;5004694;28;20041;-77
2020/12/15 11:41:35;;;;;;;20.75;11.68;;;8.40;99.90;;;;;;5004720;28;20029;-77
2020/12/15 11:44:00;;;;;;;18.90;11.68;;;8.40;99.90;;;;;;5003919;28;20034;-78
2020/12/15 11:46:26;;;;;;;22.20;12.00;;;8.30;99.90;;;;;;5003575;28;20109;-78
2020/12/15 11:48:51;;;;;;;21.98;11.07;;;8.40;99.90;;;;;;5005077;28;20389;-78
2020/12/15 11:51:27;;;;;;;21.70;12.60;;;8.50;99.90;;;;;;5004025;28;20045;-78
2020/12/15 11:53:52;;;;;;;29.40;13.65;;;8.60;99.90;;;;;;5005093;28;20033;-77
2020/12/15 11:56:18;;;;;;;28.98;17.13;;;8.70;99.90;;;;;;5003143;28;20123;-78
2020/12/15 11:58:44;;;;;;;31.88;17.40;;;8.80;99.90;;;;;;5004912;28;20044;-77
2020/12/15 12:01:10;;;;;;;28.70;16.85;;;8.80;99.80;;;;;;4997374;28;20770;-77
2020/12/15 12:03:36;;;;;;;34.47;19.35;;;8.90;99.60;;;;;;4999055;28;20049;-79
2020/12/15 12:06:01;;;;;;;55.85;28.45;;;9.00;99.20;;;;;;4998808;28;20155;-80
2020/12/15 12:08:28;;;;;;;50.08;27.52;;;9.00;98.60;;;;;;4997498;28;20037;-79
2020/12/15 12:10:53;;;;;;;52.25;29.95;;;9.00;98.50;;;;;;4997573;28;20060;-79
2020/12/15 12:13:19;;;;;;;54.72;29.05;;;9.10;98.20;;;;;;4996412;28;20163;-79
2020/12/15 12:15:47;;;;;;;50.65;27.63;;;9.20;98.20;;;;;;4998716;28;20434;-79
2020/12/15 12:18:13;;;;;;;49.33;26.70;;;9.30;97.50;;;;;;4997952;28;20057;-79
2020/12/15 12:20:38;;;;;;;34.50;17.52;;;9.30;97.80;;;;;;4999017;28;20030;-79
2020/12/15 12:23:04;;;;;;;41.92;19.38;;;9.20;96.90;;;;;;4999540;28;20026;-78
2020/12/15 12:25:30;;;;;;;28.58;15.93;;;9.20;97.20;;;;;;4997858;28;20480;-77
2020/12/15 12:27:55;;;;;;;33.35;18.05;;;9.30;96.90;;;;;;4997127;28;20029;-77
2020/12/15 12:30:22;;;;;;;33.50;18.85;;;9.30;96.90;;;;;;4998695;28;20037;-77
2020/12/15 12:32:49;;;;;;;29.13;16.50;;;9.20;97.10;;;;;;4999749;28;20120;-77
2020/12/15 12:35:14;;;;;;;33.03;16.73;;;9.20;97.00;;;;;;4998696;28;20038;-77
2020/12/15 12:37:40;;;;;;;43.80;19.65;;;9.20;97.60;;;;;;4995728;28;20088;-77
2020/12/15 12:40:05;;;;;;;39.08;18.95;;;9.20;97.50;;;;;;5001992;28;20050;-77
2020/12/15 12:42:31;;;;;;;43.17;20.55;;;9.20;97.30;;;;;;5004053;28;20022;-77